sensor_id;sensor_type;location;lat;lon;timestamp;P1;durP1;ratioP1;P2;durP2;ratioP2
68803;SDS011;55787;52.678;13.314;2023-07-20T00:02:17;8.20;;;3.08;;
68803;SDS011;55787;52.678;13.314;2023-07-20T00:04:44;8.20;;;3.45;;
68803;SDS011;55787;52.678;13.314;2023-07-20T00:07:11;8.00;;;2.93;;
68803;SDS011;55787;52.678;13.314;2023-07-20T00:09:38;8.10;;;3.00;;
68803;SDS011;55787;52.678;13.314;2023-07-20T00:12:04;8.68;;;3.35;;
68803;SDS011;55787;52.678;13.314;2023-07-20T00:14:31;8.32;;;3.10;;
68803;SDS011;55787;52.678;13.314;2023-07-20T00:16:58;7.65;;;2.95;;
68803;SDS011;55787;52.678;13.314;2023-07-20T00:19:25;9.07;;;3.20;;
68803;SDS011;55787;52.678;13.314;2023-07-20T00:21:53;7.47;;;2.85;;
68803;SDS011;55787;52.678;13.314;2023-07-20T00:24:23;8.23;;;2.92;;
68803;SDS011;55787;52.678;13.314;2023-07-20T00:26:50;8.82;;;3.25;;
68803;SDS011;55787;52.678;13.314;2023-07-20T00:29:17;7.20;;;2.90;;
68803;SDS011;55787;52.678;13.314;2023-07-20T00:31:44;9.73;;;3.03;;
68803;SDS011;55787;52.678;13.314;2023-07-20T00:34:13;8.40;;;3.30;;
68803;SDS011;55787;52.678;13.314;2023-07-20T00:36:39;10.07;;;3.20;;
68803;SDS011;55787;52.678;13.314;2023-07-20T00:39:07;8.55;;;3.40;;
68803;SDS011;55787;52.678;13.314;2023-07-20T00:41:33;9.27;;;3.38;;
68803;SDS011;55787;52.678;13.314;2023-07-20T00:44:00;8.97;;;2.90;;
68803;SDS011;55787;52.678;13.314;2023-07-20T00:46:27;8.52;;;3.40;;
68803;SDS011;55787;52.678;13.314;2023-07-20T00:48:54;11.52;;;3.47;;
68803;SDS011;55787;52.678;13.314;2023-07-20T00:51:21;8.13;;;3.30;;
68803;SDS011;55787;52.678;13.314;2023-07-20T00:53:49;7.65;;;3.00;;
68803;SDS011;55787;52.678;13.314;2023-07-20T00:56:16;8.80;;;3.23;;
68803;SDS011;55787;52.678;13.314;2023-07-20T00:58:43;8.85;;;3.17;;
68803;SDS011;55787;52.678;13.314;2023-07-20T01:01:11;8.05;;;3.30;;
68803;SDS011;55787;52.678;13.314;2023-07-20T01:03:37;8.35;;;2.88;;
68803;SDS011;55787;52.678;13.314;2023-07-20T01:06:21;7.97;;;2.78;;
68803;SDS011;55787;52.678;13.314;2023-07-20T01:11:25;9.02;;;3.40;;
68803;SDS011;55787;52.678;13.314;2023-07-20T01:13:58;8.75;;;3.15;;
68803;SDS011;55787;52.678;13.314;2023-07-20T01:16:26;8.43;;;3.25;;
68803;SDS011;55787;52.678;13.314;2023-07-20T01:18:53;9.15;;;3.28;;
68803;SDS011;55787;52.678;13.314;2023-07-20T01:21:56;8.13;;;3.20;;
68803;SDS011;55787;52.678;13.314;2023-07-20T01:33:00;11.98;;;3.92;;
68803;SDS011;55787;52.678;13.314;2023-07-20T01:35:29;10.47;;;3.47;;
68803;SDS011;55787;52.678;13.314;2023-07-20T01:37:57;9.45;;;3.70;;
68803;SDS011;55787;52.678;13.314;2023-07-20T01:40:25;10.00;;;3.65;;
68803;SDS011;55787;52.678;13.314;2023-07-20T01:42:53;8.13;;;3.30;;
68803;SDS011;55787;52.678;13.314;2023-07-20T01:45:20;8.73;;;3.63;;
68803;SDS011;55787;52.678;13.314;2023-07-20T01:47:46;8.90;;;3.70;;
68803;SDS011;55787;52.678;13.314;2023-07-20T01:50:13;9.50;;;3.75;;
68803;SDS011;55787;52.678;13.314;2023-07-20T01:52:40;10.00;;;3.95;;
68803;SDS011;55787;52.678;13.314;2023-07-20T01:55:07;10.25;;;4.15;;
68803;SDS011;55787;52.678;13.314;2023-07-20T01:57:34;9.65;;;4.05;;
68803;SDS011;55787;52.678;13.314;2023-07-20T02:00:01;9.13;;;3.67;;
68803;SDS011;55787;52.678;13.314;2023-07-20T02:02:28;8.77;;;3.70;;
68803;SDS011;55787;52.678;13.314;2023-07-20T02:04:55;8.63;;;3.90;;
68803;SDS011;55787;52.678;13.314;2023-07-20T02:07:22;10.35;;;4.25;;
68803;SDS011;55787;52.678;13.314;2023-07-20T02:09:48;9.98;;;4.10;;
68803;SDS011;55787;52.678;13.314;2023-07-20T02:12:15;10.13;;;3.73;;
68803;SDS011;55787;52.678;13.314;2023-07-20T02:14:42;11.05;;;4.22;;
68803;SDS011;55787;52.678;13.314;2023-07-20T02:17:08;10.57;;;4.10;;
68803;SDS011;55787;52.678;13.314;2023-07-20T02:19:40;10.68;;;4.05;;
68803;SDS011;55787;52.678;13.314;2023-07-20T02:22:07;10.35;;;4.50;;
68803;SDS011;55787;52.678;13.314;2023-07-20T02:24:34;11.40;;;4.83;;
68803;SDS011;55787;52.678;13.314;2023-07-20T02:27:00;9.73;;;4.10;;
68803;SDS011;55787;52.678;13.314;2023-07-20T02:29:27;9.93;;;4.18;;
68803;SDS011;55787;52.678;13.314;2023-07-20T02:31:54;9.90;;;4.25;;
68803;SDS011;55787;52.678;13.314;2023-07-20T02:34:21;10.80;;;4.63;;
68803;SDS011;55787;52.678;13.314;2023-07-20T02:36:47;12.20;;;4.90;;
68803;SDS011;55787;52.678;13.314;2023-07-20T02:39:14;11.32;;;4.57;;
68803;SDS011;55787;52.678;13.314;2023-07-20T02:41:41;10.95;;;4.90;;
68803;SDS011;55787;52.678;13.314;2023-07-20T02:44:08;12.63;;;5.40;;
68803;SDS011;55787;52.678;13.314;2023-07-20T02:46:35;12.27;;;5.07;;
68803;SDS011;55787;52.678;13.314;2023-07-20T02:49:01;11.83;;;5.27;;
68803;SDS011;55787;52.678;13.314;2023-07-20T02:51:28;12.77;;;5.05;;
68803;SDS011;55787;52.678;13.314;2023-07-20T02:53:55;12.73;;;5.38;;
68803;SDS011;55787;52.678;13.314;2023-07-20T02:56:22;14.25;;;5.57;;
68803;SDS011;55787;52.678;13.314;2023-07-20T02:58:49;14.90;;;5.70;;
68803;SDS011;55787;52.678;13.314;2023-07-20T03:01:16;12.60;;;5.27;;
68803;SDS011;55787;52.678;13.314;2023-07-20T03:03:43;14.07;;;5.60;;
68803;SDS011;55787;52.678;13.314;2023-07-20T03:06:13;11.80;;;5.10;;
68803;SDS011;55787;52.678;13.314;2023-07-20T03:08:41;10.75;;;5.07;;
68803;SDS011;55787;52.678;13.314;2023-07-20T03:11:11;13.95;;;5.85;;
68803;SDS011;55787;52.678;13.314;2023-07-20T03:13:38;12.73;;;5.77;;
68803;SDS011;55787;52.678;13.314;2023-07-20T03:16:05;14.23;;;5.68;;
68803;SDS011;55787;52.678;13.314;2023-07-20T03:18:31;14.98;;;6.35;;
68803;SDS011;55787;52.678;13.314;2023-07-20T03:20:58;15.77;;;6.15;;
68803;SDS011;55787;52.678;13.314;2023-07-20T03:23:25;16.17;;;6.82;;
68803;SDS011;55787;52.678;13.314;2023-07-20T03:25:52;13.93;;;6.53;;
68803;SDS011;55787;52.678;13.314;2023-07-20T03:28:21;15.75;;;6.65;;
68803;SDS011;55787;52.678;13.314;2023-07-20T03:30:52;14.77;;;6.20;;
68803;SDS011;55787;52.678;13.314;2023-07-20T03:33:27;14.52;;;6.70;;
68803;SDS011;55787;52.678;13.314;2023-07-20T03:35:56;14.57;;;6.35;;
68803;SDS011;55787;52.678;13.314;2023-07-20T03:38:23;15.57;;;6.60;;
68803;SDS011;55787;52.678;13.314;2023-07-20T03:40:51;14.07;;;5.97;;
68803;SDS011;55787;52.678;13.314;2023-07-20T03:43:19;15.10;;;5.88;;
68803;SDS011;55787;52.678;13.314;2023-07-20T03:45:45;15.20;;;6.80;;
68803;SDS011;55787;52.678;13.314;2023-07-20T03:48:17;13.98;;;6.00;;
68803;SDS011;55787;52.678;13.314;2023-07-20T03:50:45;14.53;;;5.87;;
68803;SDS011;55787;52.678;13.314;2023-07-20T03:53:13;15.98;;;6.10;;
68803;SDS011;55787;52.678;13.314;2023-07-20T03:55:41;14.73;;;6.15;;
68803;SDS011;55787;52.678;13.314;2023-07-20T03:58:11;13.95;;;6.50;;
68803;SDS011;55787;52.678;13.314;2023-07-20T04:00:38;14.65;;;7.00;;
68803;SDS011;55787;52.678;13.314;2023-07-20T04:03:06;13.73;;;6.50;;
68803;SDS011;55787;52.678;13.314;2023-07-20T04:05:33;14.65;;;6.45;;
68803;SDS011;55787;52.678;13.314;2023-07-20T04:07:59;14.20;;;6.22;;
68803;SDS011;55787;52.678;13.314;2023-07-20T04:10:26;13.93;;;6.53;;
68803;SDS011;55787;52.678;13.314;2023-07-20T04:12:53;13.52;;;5.88;;
68803;SDS011;55787;52.678;13.314;2023-07-20T04:15:19;14.47;;;6.37;;
68803;SDS011;55787;52.678;13.314;2023-07-20T04:17:46;15.07;;;6.60;;
68803;SDS011;55787;52.678;13.314;2023-07-20T04:20:13;15.90;;;6.55;;
68803;SDS011;55787;52.678;13.314;2023-07-20T04:22:39;12.55;;;5.88;;
68803;SDS011;55787;52.678;13.314;2023-07-20T04:25:06;13.70;;;6.05;;
68803;SDS011;55787;52.678;13.314;2023-07-20T04:27:34;14.43;;;6.10;;
68803;SDS011;55787;52.678;13.314;2023-07-20T04:30:00;14.57;;;6.30;;
68803;SDS011;55787;52.678;13.314;2023-07-20T04:32:27;12.18;;;5.80;;
68803;SDS011;55787;52.678;13.314;2023-07-20T04:34:54;12.55;;;5.85;;
68803;SDS011;55787;52.678;13.314;2023-07-20T04:37:21;13.00;;;6.00;;
68803;SDS011;55787;52.678;13.314;2023-07-20T04:39:47;11.70;;;5.40;;
68803;SDS011;55787;52.678;13.314;2023-07-20T04:42:14;13.35;;;5.75;;
68803;SDS011;55787;52.678;13.314;2023-07-20T04:44:41;12.75;;;5.35;;
68803;SDS011;55787;52.678;13.314;2023-07-20T04:47:08;15.30;;;6.18;;
68803;SDS011;55787;52.678;13.314;2023-07-20T04:49:35;12.48;;;5.75;;
68803;SDS011;55787;52.678;13.314;2023-07-20T04:52:01;11.97;;;5.70;;
68803;SDS011;55787;52.678;13.314;2023-07-20T04:54:29;15.18;;;5.82;;
68803;SDS011;55787;52.678;13.314;2023-07-20T04:56:55;12.10;;;5.68;;
68803;SDS011;55787;52.678;13.314;2023-07-20T04:59:22;11.95;;;5.15;;
68803;SDS011;55787;52.678;13.314;2023-07-20T05:01:49;10.93;;;5.28;;
68803;SDS011;55787;52.678;13.314;2023-07-20T05:04:15;13.50;;;5.53;;
68803;SDS011;55787;52.678;13.314;2023-07-20T05:06:44;11.52;;;5.13;;
68803;SDS011;55787;52.678;13.314;2023-07-20T05:09:11;10.07;;;4.25;;
68803;SDS011;55787;52.678;13.314;2023-07-20T05:11:38;9.77;;;4.25;;
68803;SDS011;55787;52.678;13.314;2023-07-20T05:14:04;11.90;;;5.05;;
68803;SDS011;55787;52.678;13.314;2023-07-20T05:16:31;11.73;;;5.10;;
68803;SDS011;55787;52.678;13.314;2023-07-20T05:18:58;13.27;;;5.20;;
68803;SDS011;55787;52.678;13.314;2023-07-20T05:21:24;10.88;;;4.57;;
68803;SDS011;55787;52.678;13.314;2023-07-20T05:23:51;10.63;;;4.88;;
68803;SDS011;55787;52.678;13.314;2023-07-20T05:26:18;10.05;;;4.30;;
68803;SDS011;55787;52.678;13.314;2023-07-20T05:28:44;10.37;;;4.90;;
68803;SDS011;55787;52.678;13.314;2023-07-20T05:31:11;10.95;;;4.63;;
68803;SDS011;55787;52.678;13.314;2023-07-20T05:33:38;11.45;;;4.60;;
68803;SDS011;55787;52.678;13.314;2023-07-20T05:36:05;11.05;;;4.38;;
68803;SDS011;55787;52.678;13.314;2023-07-20T05:38:31;9.25;;;4.15;;
68803;SDS011;55787;52.678;13.314;2023-07-20T05:41:01;9.13;;;4.03;;
68803;SDS011;55787;52.678;13.314;2023-07-20T05:43:28;9.60;;;3.90;;
68803;SDS011;55787;52.678;13.314;2023-07-20T05:45:55;8.80;;;3.95;;
68803;SDS011;55787;52.678;13.314;2023-07-20T05:48:23;10.25;;;4.32;;
68803;SDS011;55787;52.678;13.314;2023-07-20T05:50:50;11.25;;;4.68;;
68803;SDS011;55787;52.678;13.314;2023-07-20T05:53:17;9.73;;;4.77;;
68803;SDS011;55787;52.678;13.314;2023-07-20T05:55:44;10.45;;;4.63;;
68803;SDS011;55787;52.678;13.314;2023-07-20T05:58:18;9.70;;;4.32;;
68803;SDS011;55787;52.678;13.314;2023-07-20T06:00:48;9.25;;;4.30;;
68803;SDS011;55787;52.678;13.314;2023-07-20T06:03:15;9.57;;;3.92;;
68803;SDS011;55787;52.678;13.314;2023-07-20T06:05:47;9.10;;;4.03;;
68803;SDS011;55787;52.678;13.314;2023-07-20T06:08:14;8.43;;;3.85;;
68803;SDS011;55787;52.678;13.314;2023-07-20T06:10:41;8.93;;;3.80;;
68803;SDS011;55787;52.678;13.314;2023-07-20T06:13:11;8.38;;;3.45;;
68803;SDS011;55787;52.678;13.314;2023-07-20T06:15:38;8.73;;;3.40;;
68803;SDS011;55787;52.678;13.314;2023-07-20T06:18:05;10.20;;;2.73;;
68803;SDS011;55787;52.678;13.314;2023-07-20T06:20:32;8.60;;;2.60;;
68803;SDS011;55787;52.678;13.314;2023-07-20T06:22:58;7.32;;;2.33;;
68803;SDS011;55787;52.678;13.314;2023-07-20T06:25:25;6.95;;;2.10;;
68803;SDS011;55787;52.678;13.314;2023-07-20T06:27:54;7.45;;;2.08;;
68803;SDS011;55787;52.678;13.314;2023-07-20T06:30:21;6.27;;;1.90;;
68803;SDS011;55787;52.678;13.314;2023-07-20T06:32:48;6.40;;;1.95;;
68803;SDS011;55787;52.678;13.314;2023-07-20T06:35:15;6.28;;;1.70;;
68803;SDS011;55787;52.678;13.314;2023-07-20T06:37:42;6.93;;;1.65;;
68803;SDS011;55787;52.678;13.314;2023-07-20T06:40:09;5.90;;;1.50;;
68803;SDS011;55787;52.678;13.314;2023-07-20T06:42:39;5.40;;;1.60;;
68803;SDS011;55787;52.678;13.314;2023-07-20T06:45:08;6.43;;;1.83;;
68803;SDS011;55787;52.678;13.314;2023-07-20T06:47:37;5.85;;;1.80;;
68803;SDS011;55787;52.678;13.314;2023-07-20T06:50:06;5.90;;;1.40;;
68803;SDS011;55787;52.678;13.314;2023-07-20T06:52:33;5.85;;;1.63;;
68803;SDS011;55787;52.678;13.314;2023-07-20T06:55:00;5.10;;;1.50;;
68803;SDS011;55787;52.678;13.314;2023-07-20T06:57:31;6.30;;;1.70;;
68803;SDS011;55787;52.678;13.314;2023-07-20T06:59:58;5.40;;;1.33;;
68803;SDS011;55787;52.678;13.314;2023-07-20T07:02:25;5.32;;;1.27;;
68803;SDS011;55787;52.678;13.314;2023-07-20T07:04:51;6.68;;;1.10;;
68803;SDS011;55787;52.678;13.314;2023-07-20T07:07:26;5.00;;;1.50;;
68803;SDS011;55787;52.678;13.314;2023-07-20T07:09:53;5.68;;;1.33;;
68803;SDS011;55787;52.678;13.314;2023-07-20T07:12:20;4.43;;;1.20;;
68803;SDS011;55787;52.678;13.314;2023-07-20T07:14:47;6.22;;;1.65;;
68803;SDS011;55787;52.678;13.314;2023-07-20T07:17:13;5.13;;;1.48;;
68803;SDS011;55787;52.678;13.314;2023-07-20T07:19:45;4.80;;;1.20;;
68803;SDS011;55787;52.678;13.314;2023-07-20T07:22:14;5.25;;;1.02;;
68803;SDS011;55787;52.678;13.314;2023-07-20T07:24:41;4.30;;;1.00;;
68803;SDS011;55787;52.678;13.314;2023-07-20T07:27:08;4.03;;;0.75;;
68803;SDS011;55787;52.678;13.314;2023-07-20T07:29:35;3.75;;;0.70;;
68803;SDS011;55787;52.678;13.314;2023-07-20T07:32:02;3.40;;;0.50;;
68803;SDS011;55787;52.678;13.314;2023-07-20T07:34:29;4.70;;;0.70;;
68803;SDS011;55787;52.678;13.314;2023-07-20T07:36:56;3.72;;;0.70;;
68803;SDS011;55787;52.678;13.314;2023-07-20T07:39:22;4.18;;;0.80;;
68803;SDS011;55787;52.678;13.314;2023-07-20T07:41:53;3.45;;;0.63;;
68803;SDS011;55787;52.678;13.314;2023-07-20T07:44:20;5.30;;;0.70;;
68803;SDS011;55787;52.678;13.314;2023-07-20T07:46:47;3.80;;;0.80;;
68803;SDS011;55787;52.678;13.314;2023-07-20T07:49:15;3.75;;;0.70;;
68803;SDS011;55787;52.678;13.314;2023-07-20T07:51:42;3.20;;;0.50;;
68803;SDS011;55787;52.678;13.314;2023-07-20T07:54:09;3.75;;;0.50;;
68803;SDS011;55787;52.678;13.314;2023-07-20T07:56:36;3.10;;;0.53;;
68803;SDS011;55787;52.678;13.314;2023-07-20T07:59:03;3.47;;;0.60;;
68803;SDS011;55787;52.678;13.314;2023-07-20T08:01:30;4.00;;;0.80;;
68803;SDS011;55787;52.678;13.314;2023-07-20T08:03:57;4.53;;;0.95;;
68803;SDS011;55787;52.678;13.314;2023-07-20T08:06:24;3.25;;;0.50;;
68803;SDS011;55787;52.678;13.314;2023-07-20T08:08:52;4.00;;;0.63;;
68803;SDS011;55787;52.678;13.314;2023-07-20T08:11:19;2.90;;;0.50;;
68803;SDS011;55787;52.678;13.314;2023-07-20T08:13:45;3.25;;;0.60;;
68803;SDS011;55787;52.678;13.314;2023-07-20T08:16:12;3.75;;;0.70;;
68803;SDS011;55787;52.678;13.314;2023-07-20T08:18:40;3.97;;;0.60;;
68803;SDS011;55787;52.678;13.314;2023-07-20T08:21:06;3.93;;;0.90;;
68803;SDS011;55787;52.678;13.314;2023-07-20T08:23:33;3.65;;;0.90;;
68803;SDS011;55787;52.678;13.314;2023-07-20T08:26:00;4.57;;;0.60;;
68803;SDS011;55787;52.678;13.314;2023-07-20T08:28:27;3.53;;;0.63;;
68803;SDS011;55787;52.678;13.314;2023-07-20T08:30:55;3.58;;;0.65;;
68803;SDS011;55787;52.678;13.314;2023-07-20T08:33:22;3.93;;;0.60;;
68803;SDS011;55787;52.678;13.314;2023-07-20T08:35:49;2.33;;;0.40;;
68803;SDS011;55787;52.678;13.314;2023-07-20T08:38:16;3.70;;;0.63;;
68803;SDS011;55787;52.678;13.314;2023-07-20T08:40:44;3.30;;;0.50;;
68803;SDS011;55787;52.678;13.314;2023-07-20T08:43:12;3.45;;;0.47;;
68803;SDS011;55787;52.678;13.314;2023-07-20T08:45:40;3.30;;;0.60;;
68803;SDS011;55787;52.678;13.314;2023-07-20T08:48:07;3.55;;;0.40;;
68803;SDS011;55787;52.678;13.314;2023-07-20T08:50:34;3.22;;;0.50;;
68803;SDS011;55787;52.678;13.314;2023-07-20T08:53:01;3.55;;;0.47;;
68803;SDS011;55787;52.678;13.314;2023-07-20T08:55:29;3.17;;;0.50;;
68803;SDS011;55787;52.678;13.314;2023-07-20T08:57:58;3.17;;;0.50;;
68803;SDS011;55787;52.678;13.314;2023-07-20T09:00:26;5.03;;;1.40;;
68803;SDS011;55787;52.678;13.314;2023-07-20T09:02:53;4.60;;;0.70;;
68803;SDS011;55787;52.678;13.314;2023-07-20T09:05:22;4.22;;;0.52;;
68803;SDS011;55787;52.678;13.314;2023-07-20T09:07:53;2.85;;;0.40;;
68803;SDS011;55787;52.678;13.314;2023-07-20T09:10:23;3.60;;;0.57;;
68803;SDS011;55787;52.678;13.314;2023-07-20T09:12:51;3.70;;;0.50;;
68803;SDS011;55787;52.678;13.314;2023-07-20T09:15:18;4.30;;;0.70;;
68803;SDS011;55787;52.678;13.314;2023-07-20T09:17:46;4.00;;;0.60;;
68803;SDS011;55787;52.678;13.314;2023-07-20T09:20:15;4.22;;;0.60;;
68803;SDS011;55787;52.678;13.314;2023-07-20T09:22:47;6.43;;;0.70;;
68803;SDS011;55787;52.678;13.314;2023-07-20T09:25:16;4.35;;;0.50;;
68803;SDS011;55787;52.678;13.314;2023-07-20T09:27:48;3.90;;;0.68;;
68803;SDS011;55787;52.678;13.314;2023-07-20T09:30:17;4.03;;;0.73;;
68803;SDS011;55787;52.678;13.314;2023-07-20T09:32:48;3.65;;;0.50;;
68803;SDS011;55787;52.678;13.314;2023-07-20T09:35:20;3.67;;;0.60;;
68803;SDS011;55787;52.678;13.314;2023-07-20T09:38:00;3.55;;;0.60;;
68803;SDS011;55787;52.678;13.314;2023-07-20T09:40:30;4.05;;;0.70;;
68803;SDS011;55787;52.678;13.314;2023-07-20T09:43:08;3.92;;;0.70;;
68803;SDS011;55787;52.678;13.314;2023-07-20T09:45:41;3.33;;;0.52;;
68803;SDS011;55787;52.678;13.314;2023-07-20T09:48:11;3.90;;;0.50;;
68803;SDS011;55787;52.678;13.314;2023-07-20T09:50:42;3.08;;;0.50;;
68803;SDS011;55787;52.678;13.314;2023-07-20T09:53:14;3.42;;;0.60;;
68803;SDS011;55787;52.678;13.314;2023-07-20T09:55:44;4.07;;;0.70;;
68803;SDS011;55787;52.678;13.314;2023-07-20T09:58:14;4.10;;;0.60;;
68803;SDS011;55787;52.678;13.314;2023-07-20T10:00:43;3.00;;;0.43;;
68803;SDS011;55787;52.678;13.314;2023-07-20T10:03:20;3.15;;;0.50;;
68803;SDS011;55787;52.678;13.314;2023-07-20T10:05:52;2.50;;;0.40;;
68803;SDS011;55787;52.678;13.314;2023-07-20T10:08:26;3.28;;;0.50;;
68803;SDS011;55787;52.678;13.314;2023-07-20T10:10:59;3.72;;;0.57;;
68803;SDS011;55787;52.678;13.314;2023-07-20T10:13:29;2.60;;;0.30;;
68803;SDS011;55787;52.678;13.314;2023-07-20T10:15:59;3.10;;;0.40;;
68803;SDS011;55787;52.678;13.314;2023-07-20T10:21:17;3.42;;;0.50;;
68803;SDS011;55787;52.678;13.314;2023-07-20T10:23:49;2.88;;;0.45;;
68803;SDS011;55787;52.678;13.314;2023-07-20T10:26:16;4.83;;;0.50;;
68803;SDS011;55787;52.678;13.314;2023-07-20T10:28:43;3.30;;;0.40;;
68803;SDS011;55787;52.678;13.314;2023-07-20T10:31:10;4.53;;;0.70;;
68803;SDS011;55787;52.678;13.314;2023-07-20T10:33:39;3.03;;;0.50;;
68803;SDS011;55787;52.678;13.314;2023-07-20T10:36:06;2.92;;;0.40;;
68803;SDS011;55787;52.678;13.314;2023-07-20T10:41:16;4.07;;;0.70;;
68803;SDS011;55787;52.678;13.314;2023-07-20T10:43:48;2.83;;;0.40;;
68803;SDS011;55787;52.678;13.314;2023-07-20T10:46:16;3.45;;;0.60;;
68803;SDS011;55787;52.678;13.314;2023-07-20T10:49:02;3.00;;;0.60;;
68803;SDS011;55787;52.678;13.314;2023-07-20T10:51:48;3.70;;;0.50;;
68803;SDS011;55787;52.678;13.314;2023-07-20T10:56:49;3.25;;;0.50;;
68803;SDS011;55787;52.678;13.314;2023-07-20T11:01:58;3.55;;;0.60;;
68803;SDS011;55787;52.678;13.314;2023-07-20T11:05:01;4.27;;;0.40;;
68803;SDS011;55787;52.678;13.314;2023-07-20T11:07:37;3.28;;;0.50;;
68803;SDS011;55787;52.678;13.314;2023-07-20T11:10:14;4.25;;;0.93;;
68803;SDS011;55787;52.678;13.314;2023-07-20T11:18:27;3.50;;;0.60;;
68803;SDS011;55787;52.678;13.314;2023-07-20T11:20:53;4.35;;;0.65;;
68803;SDS011;55787;52.678;13.314;2023-07-20T11:23:20;3.47;;;0.70;;
68803;SDS011;55787;52.678;13.314;2023-07-20T11:25:49;3.88;;;0.60;;
68803;SDS011;55787;52.678;13.314;2023-07-20T11:28:16;3.53;;;0.50;;
68803;SDS011;55787;52.678;13.314;2023-07-20T11:30:42;3.17;;;0.53;;
68803;SDS011;55787;52.678;13.314;2023-07-20T11:33:09;5.47;;;0.60;;
68803;SDS011;55787;52.678;13.314;2023-07-20T11:35:41;3.17;;;0.50;;
68803;SDS011;55787;52.678;13.314;2023-07-20T11:38:09;3.35;;;0.45;;
68803;SDS011;55787;52.678;13.314;2023-07-20T11:40:36;3.92;;;0.55;;
68803;SDS011;55787;52.678;13.314;2023-07-20T11:43:03;3.50;;;0.57;;
68803;SDS011;55787;52.678;13.314;2023-07-20T11:45:32;3.67;;;0.50;;
68803;SDS011;55787;52.678;13.314;2023-07-20T11:47:59;3.15;;;0.60;;
68803;SDS011;55787;52.678;13.314;2023-07-20T11:50:26;3.67;;;0.60;;
68803;SDS011;55787;52.678;13.314;2023-07-20T11:52:53;3.28;;;0.60;;
68803;SDS011;55787;52.678;13.314;2023-07-20T11:55:20;2.67;;;0.40;;
68803;SDS011;55787;52.678;13.314;2023-07-20T11:58:03;3.55;;;0.50;;
68803;SDS011;55787;52.678;13.314;2023-07-20T12:00:33;4.07;;;0.70;;
68803;SDS011;55787;52.678;13.314;2023-07-20T12:03:01;4.00;;;0.50;;
68803;SDS011;55787;52.678;13.314;2023-07-20T12:05:28;4.45;;;0.50;;
68803;SDS011;55787;52.678;13.314;2023-07-20T12:07:54;6.13;;;0.60;;
68803;SDS011;55787;52.678;13.314;2023-07-20T12:10:25;3.10;;;0.52;;
68803;SDS011;55787;52.678;13.314;2023-07-20T12:12:53;2.80;;;0.45;;
68803;SDS011;55787;52.678;13.314;2023-07-20T12:17:51;3.95;;;0.90;;
68803;SDS011;55787;52.678;13.314;2023-07-20T12:20:32;3.60;;;0.73;;
68803;SDS011;55787;52.678;13.314;2023-07-20T12:23:04;3.95;;;0.80;;
68803;SDS011;55787;52.678;13.314;2023-07-20T12:25:47;3.88;;;1.00;;
68803;SDS011;55787;52.678;13.314;2023-07-20T12:28:15;5.03;;;1.10;;
68803;SDS011;55787;52.678;13.314;2023-07-20T12:30:43;4.70;;;0.90;;
68803;SDS011;55787;52.678;13.314;2023-07-20T12:33:11;4.97;;;1.00;;
68803;SDS011;55787;52.678;13.314;2023-07-20T12:35:42;3.47;;;0.70;;
68803;SDS011;55787;52.678;13.314;2023-07-20T12:38:09;4.57;;;1.00;;
68803;SDS011;55787;52.678;13.314;2023-07-20T12:40:36;4.07;;;1.20;;
68803;SDS011;55787;52.678;13.314;2023-07-20T12:43:03;3.75;;;0.80;;
68803;SDS011;55787;52.678;13.314;2023-07-20T12:45:31;4.80;;;1.23;;
68803;SDS011;55787;52.678;13.314;2023-07-20T12:47:57;3.58;;;0.70;;
68803;SDS011;55787;52.678;13.314;2023-07-20T12:50:24;4.85;;;0.90;;
68803;SDS011;55787;52.678;13.314;2023-07-20T12:52:51;3.20;;;0.60;;
68803;SDS011;55787;52.678;13.314;2023-07-20T12:55:18;3.50;;;0.73;;
68803;SDS011;55787;52.678;13.314;2023-07-20T12:57:46;3.70;;;0.90;;
68803;SDS011;55787;52.678;13.314;2023-07-20T13:00:13;3.53;;;0.88;;
68803;SDS011;55787;52.678;13.314;2023-07-20T13:02:41;3.65;;;1.05;;
68803;SDS011;55787;52.678;13.314;2023-07-20T13:05:08;3.45;;;0.70;;
68803;SDS011;55787;52.678;13.314;2023-07-20T13:07:36;4.32;;;1.02;;
68803;SDS011;55787;52.678;13.314;2023-07-20T13:10:07;3.73;;;0.90;;
68803;SDS011;55787;52.678;13.314;2023-07-20T13:12:35;3.80;;;0.88;;
68803;SDS011;55787;52.678;13.314;2023-07-20T13:15:03;3.42;;;0.80;;
68803;SDS011;55787;52.678;13.314;2023-07-20T13:17:33;3.90;;;0.60;;
68803;SDS011;55787;52.678;13.314;2023-07-20T13:20:00;3.15;;;0.70;;
68803;SDS011;55787;52.678;13.314;2023-07-20T13:22:28;5.03;;;0.70;;
68803;SDS011;55787;52.678;13.314;2023-07-20T13:24:55;3.72;;;0.80;;
68803;SDS011;55787;52.678;13.314;2023-07-20T13:27:21;3.17;;;0.60;;
68803;SDS011;55787;52.678;13.314;2023-07-20T13:29:48;4.03;;;0.73;;
68803;SDS011;55787;52.678;13.314;2023-07-20T13:32:15;3.03;;;0.50;;
68803;SDS011;55787;52.678;13.314;2023-07-20T13:34:42;3.67;;;0.70;;
68803;SDS011;55787;52.678;13.314;2023-07-20T13:37:14;3.75;;;0.70;;
68803;SDS011;55787;52.678;13.314;2023-07-20T13:39:42;3.72;;;0.60;;
68803;SDS011;55787;52.678;13.314;2023-07-20T13:42:10;3.55;;;0.50;;
68803;SDS011;55787;52.678;13.314;2023-07-20T13:44:38;3.60;;;0.50;;
68803;SDS011;55787;52.678;13.314;2023-07-20T13:47:05;4.23;;;0.50;;
68803;SDS011;55787;52.678;13.314;2023-07-20T13:49:35;3.30;;;0.50;;
68803;SDS011;55787;52.678;13.314;2023-07-20T13:52:12;3.92;;;0.63;;
68803;SDS011;55787;52.678;13.314;2023-07-20T13:54:41;3.58;;;0.63;;
68803;SDS011;55787;52.678;13.314;2023-07-20T13:57:11;3.33;;;0.60;;
68803;SDS011;55787;52.678;13.314;2023-07-20T13:59:38;3.33;;;0.50;;
68803;SDS011;55787;52.678;13.314;2023-07-20T14:02:05;3.05;;;0.50;;
68803;SDS011;55787;52.678;13.314;2023-07-20T14:04:34;3.63;;;0.70;;
68803;SDS011;55787;52.678;13.314;2023-07-20T14:07:02;3.13;;;0.50;;
68803;SDS011;55787;52.678;13.314;2023-07-20T14:09:29;3.90;;;0.60;;
68803;SDS011;55787;52.678;13.314;2023-07-20T14:11:56;3.40;;;0.60;;
68803;SDS011;55787;52.678;13.314;2023-07-20T14:14:25;3.85;;;0.63;;
68803;SDS011;55787;52.678;13.314;2023-07-20T14:16:52;3.60;;;0.60;;
68803;SDS011;55787;52.678;13.314;2023-07-20T14:19:19;2.80;;;0.47;;
68803;SDS011;55787;52.678;13.314;2023-07-20T14:21:46;4.78;;;0.60;;
68803;SDS011;55787;52.678;13.314;2023-07-20T14:24:12;3.27;;;0.50;;
68803;SDS011;55787;52.678;13.314;2023-07-20T14:26:40;3.20;;;0.50;;
68803;SDS011;55787;52.678;13.314;2023-07-20T14:29:09;2.85;;;0.55;;
68803;SDS011;55787;52.678;13.314;2023-07-20T14:31:36;2.95;;;0.50;;
68803;SDS011;55787;52.678;13.314;2023-07-20T14:34:03;3.00;;;0.43;;
68803;SDS011;55787;52.678;13.314;2023-07-20T14:36:30;3.67;;;0.50;;
68803;SDS011;55787;52.678;13.314;2023-07-20T14:38:59;2.80;;;0.50;;
68803;SDS011;55787;52.678;13.314;2023-07-20T14:41:26;3.30;;;0.50;;
68803;SDS011;55787;52.678;13.314;2023-07-20T14:43:53;3.72;;;0.50;;
68803;SDS011;55787;52.678;13.314;2023-07-20T14:46:20;4.00;;;0.60;;
68803;SDS011;55787;52.678;13.314;2023-07-20T14:48:47;4.60;;;0.50;;
68803;SDS011;55787;52.678;13.314;2023-07-20T14:51:14;2.97;;;0.47;;
68803;SDS011;55787;52.678;13.314;2023-07-20T14:53:41;2.88;;;0.40;;
68803;SDS011;55787;52.678;13.314;2023-07-20T14:56:08;3.10;;;0.47;;
68803;SDS011;55787;52.678;13.314;2023-07-20T14:58:35;2.58;;;0.40;;
68803;SDS011;55787;52.678;13.314;2023-07-20T15:01:02;3.20;;;0.47;;
68803;SDS011;55787;52.678;13.314;2023-07-20T15:03:30;3.15;;;0.50;;
68803;SDS011;55787;52.678;13.314;2023-07-20T15:06:00;4.03;;;0.60;;
68803;SDS011;55787;52.678;13.314;2023-07-20T15:08:27;3.92;;;0.63;;